sensor_id;sensor_type;location;lat;lon;timestamp;pressure;altitude;pressure_sealevel;temperature;humidity
7168;BME280;3625;51.762;14.320;2023-02-28T04:16:44;102214.66;;;-0.99;100.00
7168;BME280;3625;51.762;14.320;2023-02-28T04:19:15;102215.38;;;-1.02;100.00
7168;BME280;3625;51.762;14.320;2023-02-28T04:21:49;102209.06;;;-1.07;100.00
7168;BME280;3625;51.762;14.320;2023-02-28T04:24:28;102215.63;;;-1.13;100.00
7168;BME280;3625;51.762;14.320;2023-02-28T04:27:05;102218.06;;;-1.17;100.00
7168;BME280;3625;51.762;14.320;2023-02-28T04:29:42;102215.38;;;-1.18;100.00
7168;BME280;3625;51.762;14.320;2023-02-28T04:32:17;102206.38;;;-1.25;100.00
7168;BME280;3625;51.762;14.320;2023-02-28T04:34:54;102215.63;;;-1.30;100.00
7168;BME280;3625;51.762;14.320;2023-02-28T04:37:25;101861.16;;;-3.37;100.00
7168;BME280;3625;51.762;14.320;2023-02-28T04:39:56;101963.50;;;-2.82;100.00
7168;BME280;3625;51.762;14.320;2023-02-28T04:42:27;102207.97;;;-1.43;100.00
7168;BME280;3625;51.762;14.320;2023-02-28T04:45:05;102208.94;;;-1.57;100.00
7168;BME280;3625;51.762;14.320;2023-02-28T04:47:39;102215.03;;;-1.57;100.00
7168;BME280;3625;51.762;14.320;2023-02-28T04:50:11;102214.44;;;-1.51;100.00
7168;BME280;3625;51.762;14.320;2023-02-28T04:52:40;102209.34;;;-1.49;100.00
7168;BME280;3625;51.762;14.320;2023-02-28T04:55:12;101970.53;;;-2.95;100.00
7168;BME280;3625;51.762;14.320;2023-02-28T04:57:50;102110.63;;;-2.14;100.00
7168;BME280;3625;51.762;14.320;2023-02-28T05:00:23;102211.19;;;-1.63;100.00
7168;BME280;3625;51.762;14.320;2023-02-28T05:02:54;102215.31;;;-1.67;100.00
7168;BME280;3625;51.762;14.320;2023-02-28T05:05:33;102206.31;;;-1.73;100.00
7168;BME280;3625;51.762;14.320;2023-02-28T05:08:06;102210.25;;;-1.80;100.00
7168;BME280;3625;51.762;14.320;2023-02-28T05:10:37;102206.34;;;-1.88;100.00
7168;BME280;3625;51.762;14.320;2023-02-28T05:13:08;102207.31;;;-1.86;100.00
7168;BME280;3625;51.762;14.320;2023-02-28T05:15:40;102213.22;;;-1.88;100.00
7168;BME280;3625;51.762;14.320;2023-02-28T05:18:24;102218.69;;;-1.99;100.00
7168;BME280;3625;51.762;14.320;2023-02-28T05:20:59;102213.59;;;-1.97;100.00
7168;BME280;3625;51.762;14.320;2023-02-28T05:23:36;102217.88;;;-1.83;100.00
7168;BME280;3625;51.762;14.320;2023-02-28T05:26:08;102224.19;;;-1.78;100.00
7168;BME280;3625;51.762;14.320;2023-02-28T05:28:40;102226.09;;;-1.75;100.00
7168;BME280;3625;51.762;14.320;2023-02-28T05:31:13;102218.50;;;-1.87;100.00
7168;BME280;3625;51.762;14.320;2023-02-28T05:33:48;102228.88;;;-1.87;100.00
7168;BME280;3625;51.762;14.320;2023-02-28T05:36:20;102235.34;;;-1.95;100.00
7168;BME280;3625;51.762;14.320;2023-02-28T05:38:51;102114.03;;;-2.76;100.00
7168;BME280;3625;51.762;14.320;2023-02-28T05:41:22;102232.72;;;-1.95;100.00
7168;BME280;3625;51.762;14.320;2023-02-28T05:43:57;102240.13;;;-1.86;100.00
7168;BME280;3625;51.762;14.320;2023-02-28T05:46:31;102243.38;;;-1.91;100.00
7168;BME280;3625;51.762;14.320;2023-02-28T05:49:04;102251.41;;;-1.86;100.00
7168;BME280;3625;51.762;14.320;2023-02-28T05:51:34;102250.22;;;-1.76;100.00
7168;BME280;3625;51.762;14.320;2023-02-28T05:54:17;102257.63;;;-1.68;100.00
7168;BME280;3625;51.762;14.320;2023-02-28T05:56:49;102254.38;;;-1.64;100.00
7168;BME280;3625;51.762;14.320;2023-02-28T05:59:24;102259.84;;;-1.59;100.00
7168;BME280;3625;51.762;14.320;2023-02-28T06:01:55;102262.16;;;-1.64;100.00
7168;BME280;3625;51.762;14.320;2023-02-28T06:04:28;102261.22;;;-1.66;100.00
7168;BME280;3625;51.762;14.320;2023-02-28T06:06:58;102094.59;;;-2.69;100.00
7168;BME280;3625;51.762;14.320;2023-02-28T06:09:28;101950.03;;;-3.51;100.00
7168;BME280;3625;51.762;14.320;2023-02-28T06:12:03;102264.72;;;-1.65;100.00
7168;BME280;3625;51.762;14.320;2023-02-28T06:14:36;102278.44;;;-1.52;100.00
7168;BME280;3625;51.762;14.320;2023-02-28T06:17:05;102209.75;;;-1.73;100.00
7168;BME280;3625;51.762;14.320;2023-02-28T06:19:38;102278.97;;;-1.26;100.00
7168;BME280;3625;51.762;14.320;2023-02-28T06:22:08;102275.81;;;-1.21;100.00
7168;BME280;3625;51.762;14.320;2023-02-28T06:24:39;102278.00;;;-1.12;100.00
7168;BME280;3625;51.762;14.320;2023-02-28T06:27:08;102274.97;;;-1.05;100.00
7168;BME280;3625;51.762;14.320;2023-02-28T06:29:40;102091.16;;;-2.08;100.00
7168;BME280;3625;51.762;14.320;2023-02-28T06:32:09;102290.63;;;-0.87;100.00
7168;BME280;3625;51.762;14.320;2023-02-28T06:34:40;102287.69;;;-0.77;100.00
7168;BME280;3625;51.762;14.320;2023-02-28T06:37:09;102290.72;;;-0.69;100.00
7168;BME280;3625;51.762;14.320;2023-02-28T06:39:40;102285.41;;;-0.55;100.00
7168;BME280;3625;51.762;14.320;2023-02-28T06:42:09;102205.16;;;-0.99;100.00
7168;BME280;3625;51.762;14.320;2023-02-28T06:44:38;102109.34;;;-1.43;100.00
7168;BME280;3625;51.762;14.320;2023-02-28T06:47:07;102289.56;;;-0.24;100.00
7168;BME280;3625;51.762;14.320;2023-02-28T06:49:41;102286.72;;;-0.13;100.00
7168;BME280;3625;51.762;14.320;2023-02-28T06:52:12;102291.31;;;-0.07;100.00
7168;BME280;3625;51.762;14.320;2023-02-28T06:54:41;102286.50;;;0.00;100.00
7168;BME280;3625;51.762;14.320;2023-02-28T06:57:10;102291.34;;;0.11;100.00
7168;BME280;3625;51.762;14.320;2023-02-28T06:59:39;102294.41;;;0.20;100.00
7168;BME280;3625;51.762;14.320;2023-02-28T07:02:09;102295.09;;;0.33;100.00
7168;BME280;3625;51.762;14.320;2023-02-28T07:04:39;102299.25;;;0.48;100.00
7168;BME280;3625;51.762;14.320;2023-02-28T07:07:15;102306.75;;;0.59;98.63
7168;BME280;3625;51.762;14.320;2023-02-28T07:09:50;102302.28;;;0.74;99.11
7168;BME280;3625;51.762;14.320;2023-02-28T07:12:21;102305.84;;;0.77;96.53
7168;BME280;3625;51.762;14.320;2023-02-28T07:14:55;102301.22;;;0.71;94.27
7168;BME280;3625;51.762;14.320;2023-02-28T07:17:24;102301.53;;;0.77;94.20
7168;BME280;3625;51.762;14.320;2023-02-28T07:19:54;102302.19;;;0.73;93.27
7168;BME280;3625;51.762;14.320;2023-02-28T07:22:32;102312.59;;;0.91;94.86
7168;BME280;3625;51.762;14.320;2023-02-28T07:25:07;102314.38;;;0.92;93.30
7168;BME280;3625;51.762;14.320;2023-02-28T07:27:36;102313.56;;;0.93;92.66
7168;BME280;3625;51.762;14.320;2023-02-28T07:30:07;102312.94;;;0.98;91.86
7168;BME280;3625;51.762;14.320;2023-02-28T07:32:40;102319.88;;;1.17;93.10
7168;BME280;3625;51.762;14.320;2023-02-28T07:35:13;102318.66;;;1.47;93.97
7168;BME280;3625;51.762;14.320;2023-02-28T07:37:44;102319.84;;;1.75;90.41
7168;BME280;3625;51.762;14.320;2023-02-28T07:40:17;102043.09;;;0.25;89.04
7168;BME280;3625;51.762;14.320;2023-02-28T07:42:46;102324.41;;;1.79;90.48
7168;BME280;3625;51.762;14.320;2023-02-28T07:45:17;102330.34;;;1.56;86.27
7168;BME280;3625;51.762;14.320;2023-02-28T07:47:47;102329.63;;;1.21;86.08
7168;BME280;3625;51.762;14.320;2023-02-28T07:50:22;102330.72;;;1.07;87.89
7168;BME280;3625;51.762;14.320;2023-02-28T07:52:57;102324.47;;;1.03;87.70
7168;BME280;3625;51.762;14.320;2023-02-28T07:55:30;102328.53;;;1.16;88.03
7168;BME280;3625;51.762;14.320;2023-02-28T07:58:04;102324.13;;;1.15;85.92
7168;BME280;3625;51.762;14.320;2023-02-28T08:00:38;102334.91;;;1.23;85.81
7168;BME280;3625;51.762;14.320;2023-02-28T08:03:08;102326.75;;;1.34;87.47
7168;BME280;3625;51.762;14.320;2023-02-28T08:05:40;102321.81;;;1.40;85.31
7168;BME280;3625;51.762;14.320;2023-02-28T08:08:11;102323.66;;;1.43;85.66
7168;BME280;3625;51.762;14.320;2023-02-28T08:10:40;102321.41;;;1.50;84.71
7168;BME280;3625;51.762;14.320;2023-02-28T08:13:14;102321.00;;;1.61;85.34
7168;BME280;3625;51.762;14.320;2023-02-28T08:15:45;102328.19;;;1.66;84.31
7168;BME280;3625;51.762;14.320;2023-02-28T08:18:17;102327.44;;;1.69;84.03
7168;BME280;3625;51.762;14.320;2023-02-28T08:20:48;102331.41;;;1.80;81.98
7168;BME280;3625;51.762;14.320;2023-02-28T08:23:19;102330.84;;;1.87;83.11
7168;BME280;3625;51.762;14.320;2023-02-28T08:25:53;102342.03;;;1.84;77.28
7168;BME280;3625;51.762;14.320;2023-02-28T08:28:25;102336.38;;;1.95;78.06
7168;BME280;3625;51.762;14.320;2023-02-28T08:31:01;102328.81;;;2.01;77.47
7168;BME280;3625;51.762;14.320;2023-02-28T08:33:37;102333.28;;;2.03;77.36
7168;BME280;3625;51.762;14.320;2023-02-28T08:36:10;102330.16;;;2.12;77.83
7168;BME280;3625;51.762;14.320;2023-02-28T08:38:48;102335.69;;;2.19;77.25
7168;BME280;3625;51.762;14.320;2023-02-28T08:41:19;102337.25;;;2.14;75.65
7168;BME280;3625;51.762;14.320;2023-02-28T08:43:50;102334.06;;;2.21;76.04
7168;BME280;3625;51.762;14.320;2023-02-28T08:46:24;102335.53;;;2.15;75.23
7168;BME280;3625;51.762;14.320;2023-02-28T08:48:53;102333.91;;;2.18;75.50
7168;BME280;3625;51.762;14.320;2023-02-28T08:51:29;102336.03;;;2.27;74.65
7168;BME280;3625;51.762;14.320;2023-02-28T08:54:00;102120.50;;;1.07;75.19
7168;BME280;3625;51.762;14.320;2023-02-28T08:56:32;102120.97;;;1.18;71.61
7168;BME280;3625;51.762;14.320;2023-02-28T08:59:01;102344.69;;;2.47;72.24
7168;BME280;3625;51.762;14.320;2023-02-28T09:01:30;102346.47;;;2.48;74.27
7168;BME280;3625;51.762;14.320;2023-02-28T09:04:00;102340.66;;;2.55;73.49
7168;BME280;3625;51.762;14.320;2023-02-28T09:06:37;102338.13;;;2.56;73.34
7168;BME280;3625;51.762;14.320;2023-02-28T09:09:08;102346.19;;;2.62;65.75
7168;BME280;3625;51.762;14.320;2023-02-28T09:11:39;102342.44;;;2.56;68.41
7168;BME280;3625;51.762;14.320;2023-02-28T09:14:08;102340.91;;;2.61;70.69
7168;BME280;3625;51.762;14.320;2023-02-28T09:16:36;102339.63;;;2.72;69.50
7168;BME280;3625;51.762;14.320;2023-02-28T09:19:05;102343.47;;;2.82;69.19
7168;BME280;3625;51.762;14.320;2023-02-28T09:21:36;102346.41;;;2.89;66.83
7168;BME280;3625;51.762;14.320;2023-02-28T09:24:07;102345.72;;;2.95;65.92
7168;BME280;3625;51.762;14.320;2023-02-28T09:26:37;102287.72;;;2.59;61.56
7168;BME280;3625;51.762;14.320;2023-02-28T09:29:40;102349.25;;;2.95;61.14
7168;BME280;3625;51.762;14.320;2023-02-28T09:32:10;102351.97;;;2.98;59.19
7168;BME280;3625;51.762;14.320;2023-02-28T09:34:39;102352.81;;;2.97;58.76
7168;BME280;3625;51.762;14.320;2023-02-28T09:37:21;102350.78;;;2.90;57.60
7168;BME280;3625;51.762;14.320;2023-02-28T09:39:52;102351.81;;;2.94;59.39
7168;BME280;3625;51.762;14.320;2023-02-28T09:42:31;102188.75;;;2.01;61.09
7168;BME280;3625;51.762;14.320;2023-02-28T09:45:21;102328.94;;;2.88;62.77
7168;BME280;3625;51.762;14.320;2023-02-28T09:47:56;102302.72;;;2.87;55.47
7168;BME280;3625;51.762;14.320;2023-02-28T09:50:43;102212.88;;;2.39;58.43
7168;BME280;3625;51.762;14.320;2023-02-28T09:53:37;102360.53;;;3.17;53.84
7168;BME280;3625;51.762;14.320;2023-02-28T09:56:10;102338.50;;;3.10;55.37
7168;BME280;3625;51.762;14.320;2023-02-28T09:58:46;102213.13;;;2.45;55.75
7168;BME280;3625;51.762;14.320;2023-02-28T10:01:24;102222.56;;;2.63;54.85
7168;BME280;3625;51.762;14.320;2023-02-28T10:04:08;102309.19;;;3.19;53.06
7168;BME280;3625;51.762;14.320;2023-02-28T10:06:51;102202.91;;;2.51;51.10
7168;BME280;3625;51.762;14.320;2023-02-28T10:09:27;102230.97;;;2.34;50.12
7168;BME280;3625;51.762;14.320;2023-02-28T10:12:11;102316.91;;;2.71;49.22
7168;BME280;3625;51.762;14.320;2023-02-28T10:14:55;102080.13;;;1.60;49.90
7168;BME280;3625;51.762;14.320;2023-02-28T10:17:47;102157.19;;;1.95;50.09
7168;BME280;3625;51.762;14.320;2023-02-28T10:20:39;102168.31;;;1.91;50.90
7168;BME280;3625;51.762;14.320;2023-02-28T10:23:13;102350.94;;;2.93;51.39
7168;BME280;3625;51.762;14.320;2023-02-28T10:25:55;102357.97;;;2.96;52.37
7168;BME280;3625;51.762;14.320;2023-02-28T10:28:32;102263.69;;;2.47;52.64
7168;BME280;3625;51.762;14.320;2023-02-28T10:31:00;102348.00;;;3.08;52.72
7168;BME280;3625;51.762;14.320;2023-02-28T10:33:33;102348.97;;;3.10;52.30
7168;BME280;3625;51.762;14.320;2023-02-28T10:36:04;102319.78;;;2.99;52.61
7168;BME280;3625;51.762;14.320;2023-02-28T10:38:37;102335.84;;;3.32;52.23
7168;BME280;3625;51.762;14.320;2023-02-28T10:41:10;102293.16;;;3.10;50.93
7168;BME280;3625;51.762;14.320;2023-02-28T10:43:42;102290.75;;;2.92;49.98
7168;BME280;3625;51.762;14.320;2023-02-28T10:46:19;102128.84;;;2.04;50.79
7168;BME280;3625;51.762;14.320;2023-02-28T10:49:03;102341.69;;;3.25;51.50
7168;BME280;3625;51.762;14.320;2023-02-28T10:51:39;102338.53;;;3.34;50.54
7168;BME280;3625;51.762;14.320;2023-02-28T10:54:16;102230.06;;;2.78;51.06
7168;BME280;3625;51.762;14.320;2023-02-28T10:59:42;102273.69;;;3.01;50.22
7168;BME280;3625;51.762;14.320;2023-02-28T11:02:35;102339.63;;;3.40;50.13
7168;BME280;3625;51.762;14.320;2023-02-28T11:05:28;102300.19;;;3.12;50.32
7168;BME280;3625;51.762;14.320;2023-02-28T11:08:05;102331.44;;;3.31;50.31
7168;BME280;3625;51.762;14.320;2023-02-28T11:10:34;102333.97;;;3.28;51.24
7168;BME280;3625;51.762;14.320;2023-02-28T11:13:04;102334.19;;;3.34;51.05
7168;BME280;3625;51.762;14.320;2023-02-28T11:15:35;102329.72;;;3.32;51.00
7168;BME280;3625;51.762;14.320;2023-02-28T11:18:21;102317.31;;;3.26;50.95
7168;BME280;3625;51.762;14.320;2023-02-28T11:20:55;102317.25;;;3.49;50.69
7168;BME280;3625;51.762;14.320;2023-02-28T11:23:28;102318.63;;;3.61;51.17
7168;BME280;3625;51.762;14.320;2023-02-28T11:26:00;102315.38;;;3.68;50.54
7168;BME280;3625;51.762;14.320;2023-02-28T11:28:36;102288.88;;;3.59;50.45
7168;BME280;3625;51.762;14.320;2023-02-28T11:31:18;102317.59;;;3.58;49.71
7168;BME280;3625;51.762;14.320;2023-02-28T11:34:00;102177.81;;;2.78;49.60
7168;BME280;3625;51.762;14.320;2023-02-28T11:36:32;102131.09;;;2.63;50.30
7168;BME280;3625;51.762;14.320;2023-02-28T11:39:10;102303.19;;;3.69;49.66
7168;BME280;3625;51.762;14.320;2023-02-28T11:42:06;102109.72;;;2.50;49.43
7168;BME280;3625;51.762;14.320;2023-02-28T11:44:55;102286.88;;;3.52;50.26
7168;BME280;3625;51.762;14.320;2023-02-28T11:47:34;102304.84;;;3.67;50.38
7168;BME280;3625;51.762;14.320;2023-02-28T11:50:31;102304.34;;;3.77;50.49
7168;BME280;3625;51.762;14.320;2023-02-28T11:53:22;102130.78;;;2.78;50.52
7168;BME280;3625;51.762;14.320;2023-02-28T11:56:06;102203.19;;;3.28;50.49
7168;BME280;3625;51.762;14.320;2023-02-28T11:58:54;102298.91;;;3.96;50.54
7168;BME280;3625;51.762;14.320;2023-02-28T12:01:48;102223.28;;;3.55;51.28
7168;BME280;3625;51.762;14.320;2023-02-28T12:04:36;102230.56;;;3.63;50.20
7168;BME280;3625;51.762;14.320;2023-02-28T12:07:24;101989.44;;;2.47;49.68
7168;BME280;3625;51.762;14.320;2023-02-28T12:10:19;102308.56;;;4.24;49.04
7168;BME280;3625;51.762;14.320;2023-02-28T12:13:15;102057.38;;;2.72;49.35
7168;BME280;3625;51.762;14.320;2023-02-28T12:16:19;102214.34;;;3.48;49.45
7168;BME280;3625;51.762;14.320;2023-02-28T12:19:06;102237.94;;;3.75;49.88
7168;BME280;3625;51.762;14.320;2023-02-28T12:22:02;102219.56;;;3.73;50.47
7168;BME280;3625;51.762;14.320;2023-02-28T12:25:22;102207.31;;;3.72;48.37
7168;BME280;3625;51.762;14.320;2023-02-28T12:27:53;102280.50;;;4.20;48.95
7168;BME280;3625;51.762;14.320;2023-02-28T12:30:30;102147.97;;;3.46;48.11
7168;BME280;3625;51.762;14.320;2023-02-28T12:33:06;102121.25;;;3.29;48.81
7168;BME280;3625;51.762;14.320;2023-02-28T12:35:46;102239.91;;;4.07;49.41
7168;BME280;3625;51.762;14.320;2023-02-28T12:38:22;102099.84;;;3.41;48.58
7168;BME280;3625;51.762;14.320;2023-02-28T12:41:02;102056.72;;;3.03;48.56
7168;BME280;3625;51.762;14.320;2023-02-28T12:43:42;102271.94;;;4.26;48.33
7168;BME280;3625;51.762;14.320;2023-02-28T12:46:17;102077.91;;;3.11;48.68
7168;BME280;3625;51.762;14.320;2023-02-28T12:48:56;102123.91;;;3.31;48.80
7168;BME280;3625;51.762;14.320;2023-02-28T12:51:28;102091.06;;;3.14;48.99
7168;BME280;3625;51.762;14.320;2023-02-28T12:54:10;102076.22;;;3.13;48.32
7168;BME280;3625;51.762;14.320;2023-02-28T12:57:06;102055.78;;;3.01;48.85
7168;BME280;3625;51.762;14.320;2023-02-28T12:59:45;102232.16;;;4.10;49.33
7168;BME280;3625;51.762;14.320;2023-02-28T13:06:26;102206.38;;;3.96;48.56
7168;BME280;3625;51.762;14.320;2023-02-28T13:09:08;102065.19;;;3.21;48.68
7168;BME280;3625;51.762;14.320;2023-02-28T13:11:43;102235.97;;;4.20;49.58
7168;BME280;3625;51.762;14.320;2023-02-28T13:14:27;102008.63;;;2.98;48.92
7168;BME280;3625;51.762;14.320;2023-02-28T13:17:02;102237.75;;;4.21;48.75
7168;BME280;3625;51.762;14.320;2023-02-28T13:19:58;102029.72;;;3.02;49.48
7168;BME280;3625;51.762;14.320;2023-02-28T13:22:41;102105.78;;;3.35;50.08
7168;BME280;3625;51.762;14.320;2023-02-28T13:25:53;102066.47;;;3.34;48.97
7168;BME280;3625;51.762;14.320;2023-02-28T13:28:58;102226.81;;;4.34;49.26
7168;BME280;3625;51.762;14.320;2023-02-28T13:31:30;102218.09;;;4.35;49.78
7168;BME280;3625;51.762;14.320;2023-02-28T13:34:19;102214.66;;;4.36;49.37
7168;BME280;3625;51.762;14.320;2023-02-28T13:37:35;102219.94;;;4.38;48.74
7168;BME280;3625;51.762;14.320;2023-02-28T13:40:33;101895.97;;;2.38;48.90
7168;BME280;3625;51.762;14.320;2023-02-28T13:43:15;102220.53;;;4.29;49.07
7168;BME280;3625;51.762;14.320;2023-02-28T13:46:14;102186.69;;;4.08;48.88
7168;BME280;3625;51.762;14.320;2023-02-28T13:48:43;102210.59;;;4.19;49.61
7168;BME280;3625;51.762;14.320;2023-02-28T13:51:42;102098.78;;;3.61;50.04
7168;BME280;3625;51.762;14.320;2023-02-28T13:54:43;102083.72;;;3.54;49.67
7168;BME280;3625;51.762;14.320;2023-02-28T13:57:27;102172.81;;;4.11;49.36
7168;BME280;3625;51.762;14.320;2023-02-28T14:00:21;101840.53;;;2.20;49.61
7168;BME280;3625;51.762;14.320;2023-02-28T14:03:11;102201.91;;;4.20;50.36
7168;BME280;3625;51.762;14.320;2023-02-28T14:05:46;102192.13;;;4.14;50.30
7168;BME280;3625;51.762;14.320;2023-02-28T14:08:20;101895.53;;;2.51;50.06
7168;BME280;3625;51.762;14.320;2023-02-28T14:11:05;102062.81;;;3.54;49.51
7168;BME280;3625;51.762;14.320;2023-02-28T14:13:42;101911.81;;;2.68;49.97
7168;BME280;3625;51.762;14.320;2023-02-28T14:16:20;102188.94;;;4.25;50.05
7168;BME280;3625;51.762;14.320;2023-02-28T14:18:51;102186.53;;;4.31;48.58
7168;BME280;3625;51.762;14.320;2023-02-28T14:21:29;101995.91;;;3.09;48.39
7168;BME280;3625;51.762;14.320;2023-02-28T14:24:50;102101.66;;;3.69;48.52
7168;BME280;3625;51.762;14.320;2023-02-28T14:27:44;102095.63;;;3.71;49.00
7168;BME280;3625;51.762;14.320;2023-02-28T14:30:52;102188.94;;;4.25;49.12
7168;BME280;3625;51.762;14.320;2023-02-28T14:33:46;102147.16;;;4.01;49.07
7168;BME280;3625;51.762;14.320;2023-02-28T14:36:24;102141.75;;;3.95;49.63
7168;BME280;3625;51.762;14.320;2023-02-28T14:39:01;102115.88;;;3.77;49.45
7168;BME280;3625;51.762;14.320;2023-02-28T14:41:39;102197.78;;;4.28;49.35
7168;BME280;3625;51.762;14.320;2023-02-28T14:44:17;102125.03;;;3.91;48.93
7168;BME280;3625;51.762;14.320;2023-02-28T14:46:50;102134.66;;;3.92;49.06
7168;BME280;3625;51.762;14.320;2023-02-28T14:49:26;102197.56;;;4.21;49.60
7168;BME280;3625;51.762;14.320;2023-02-28T14:52:12;102031.59;;;3.33;49.38
7168;BME280;3625;51.762;14.320;2023-02-28T14:54:46;101907.00;;;2.55;49.33
7168;BME280;3625;51.762;14.320;2023-02-28T14:57:25;102150.63;;;4.00;49.61
7168;BME280;3625;51.762;14.320;2023-02-28T15:00:01;102141.84;;;3.98;49.80
7168;BME280;3625;51.762;14.320;2023-02-28T15:02:38;102179.28;;;4.22;49.74
7168;BME280;3625;51.762;14.320;2023-02-28T15:05:28;102180.78;;;4.14;49.75
7168;BME280;3625;51.762;14.320;2023-02-28T15:08:10;102124.78;;;3.84;50.05
7168;BME280;3625;51.762;14.320;2023-02-28T15:10:42;102177.31;;;4.15;50.34
7168;BME280;3625;51.762;14.320;2023-02-28T15:13:14;102059.06;;;3.48;49.78
7168;BME280;3625;51.762;14.320;2023-02-28T15:15:51;101919.59;;;2.67;49.29
7168;BME280;3625;51.762;14.320;2023-02-28T15:18:51;101892.09;;;2.52;49.58
7168;BME280;3625;51.762;14.320;2023-02-28T15:21:32;101930.19;;;2.71;49.75
7168;BME280;3625;51.762;14.320;2023-02-28T15:24:11;102033.53;;;3.14;50.34
7168;BME280;3625;51.762;14.320;2023-02-28T15:26:55;102188.97;;;3.98;50.49
7168;BME280;3625;51.762;14.320;2023-02-28T15:29:29;102183.53;;;3.92;50.83
7168;BME280;3625;51.762;14.320;2023-02-28T15:32:07;102180.84;;;3.89;51.30
7168;BME280;3625;51.762;14.320;2023-02-28T15:34:39;102159.22;;;3.69;51.36
7168;BME280;3625;51.762;14.320;2023-02-28T15:37:40;102030.06;;;2.88;51.40
7168;BME280;3625;51.762;14.320;2023-02-28T15:40:16;102153.03;;;3.67;51.14
7168;BME280;3625;51.762;14.320;2023-02-28T15:43:05;102149.03;;;3.51;51.77
7168;BME280;3625;51.762;14.320;2023-02-28T15:45:39;102089.97;;;3.07;52.07
7168;BME280;3625;51.762;14.320;2023-02-28T15:48:18;102177.34;;;3.63;51.96
7168;BME280;3625;51.762;14.320;2023-02-28T15:51:02;101900.09;;;2.06;51.79
7168;BME280;3625;51.762;14.320;2023-02-28T15:53:38;102177.06;;;3.55;52.40
7168;BME280;3625;51.762;14.320;2023-02-28T15:56:24;102084.59;;;3.02;52.42
7168;BME280;3625;51.762;14.320;2023-02-28T15:58:55;102172.59;;;3.51;53.08
7168;BME280;3625;51.762;14.320;2023-02-28T16:01:34;102170.84;;;3.52;53.05
7168;BME280;3625;51.762;14.320;2023-02-28T16:04:15;102098.44;;;3.00;53.45
7168;BME280;3625;51.762;14.320;2023-02-28T16:07:03;102170.91;;;3.53;53.38
7168;BME280;3625;51.762;14.320;2023-02-28T16:09:34;102167.03;;;3.42;53.74
7168;BME280;3625;51.762;14.320;2023-02-28T16:12:11;102160.78;;;3.37;54.32
7168;BME280;3625;51.762;14.320;2023-02-28T16:14:43;102158.88;;;3.33;54.29
7168;BME280;3625;51.762;14.320;2023-02-28T16:17:22;102159.50;;;3.26;55.22
7168;BME280;3625;51.762;14.320;2023-02-28T16:19:52;102158.56;;;3.24;55.71
7168;BME280;3625;51.762;14.320;2023-02-28T16:22:25;102156.97;;;3.29;55.83
7168;BME280;3625;51.762;14.320;2023-02-28T16:25:01;102152.03;;;3.13;56.33
7168;BME280;3625;51.762;14.320;2023-02-28T16:27:48;102153.44;;;3.03;57.33
7168;BME280;3625;51.762;14.320;2023-02-28T16:30:32;102153.84;;;2.90;57.73
7168;BME280;3625;51.762;14.320;2023-02-28T16:33:04;102156.91;;;2.78;59.29
7168;BME280;3625;51.762;14.320;2023-02-28T16:35:36;102168.09;;;2.74;59.43
7168;BME280;3625;51.762;14.320;2023-02-28T16:38:05;102161.78;;;2.69;59.89
7168;BME280;3625;51.762;14.320;2023-02-28T16:40:38;102164.59;;;2.51;60.24
7168;BME280;3625;51.762;14.320;2023-02-28T16:43:18;101898.50;;;0.95;61.42
7168;BME280;3625;51.762;14.320;2023-02-28T16:46:31;102071.06;;;1.95;61.07
7168;BME280;3625;51.762;14.320;2023-02-28T16:49:11;102170.38;;;2.43;62.04
7168;BME280;3625;51.762;14.320;2023-02-28T16:51:40;102171.69;;;2.32;62.23
7168;BME280;3625;51.762;14.320;2023-02-28T16:54:09;102170.38;;;2.20;63.26
7168;BME280;3625;51.762;14.320;2023-02-28T16:56:43;102170.84;;;2.10;64.19
7168;BME280;3625;51.762;14.320;2023-02-28T16:59:13;102156.00;;;1.87;65.04
7168;BME280;3625;51.762;14.320;2023-02-28T17:01:43;102183.72;;;2.06;65.68
7168;BME280;3625;51.762;14.320;2023-02-28T17:04:12;102192.09;;;1.97;66.27
7168;BME280;3625;51.762;14.320;2023-02-28T17:06:41;102192.16;;;1.99;66.31
7168;BME280;3625;51.762;14.320;2023-02-28T17:09:17;102103.94;;;1.47;66.89
7168;BME280;3625;51.762;14.320;2023-02-28T17:11:49;102160.47;;;1.69;67.06
7168;BME280;3625;51.762;14.320;2023-02-28T17:14:18;102191.19;;;1.76;68.08
7168;BME280;3625;51.762;14.320;2023-02-28T17:16:46;102183.94;;;1.69;69.10
7168;BME280;3625;51.762;14.320;2023-02-28T17:19:16;102187.59;;;1.72;69.97
7168;BME280;3625;51.762;14.320;2023-02-28T17:21:45;102192.47;;;1.65;71.04
7168;BME280;3625;51.762;14.320;2023-02-28T17:24:14;102188.09;;;1.64;71.14
7168;BME280;3625;51.762;14.320;2023-02-28T17:26:58;102204.00;;;1.70;73.44
7168;BME280;3625;51.762;14.320;2023-02-28T17:29:27;102185.59;;;1.67;74.65
7168;BME280;3625;51.762;14.320;2023-02-28T17:31:56;102181.34;;;1.69;75.73
7168;BME280;3625;51.762;14.320;2023-02-28T17:34:29;102185.28;;;1.59;75.54
7168;BME280;3625;51.762;14.320;2023-02-28T17:36:58;102177.81;;;1.47;76.37
7168;BME280;3625;51.762;14.320;2023-02-28T17:39:27;102174.78;;;1.37;77.24
7168;BME280;3625;51.762;14.320;2023-02-28T17:41:57;102179.94;;;1.35;77.93
7168;BME280;3625;51.762;14.320;2023-02-28T17:44:26;102182.38;;;1.32;79.12
7168;BME280;3625;51.762;14.320;2023-02-28T17:46:55;102157.56;;;1.21;80.08
7168;BME280;3625;51.762;14.320;2023-02-28T17:49:24;102184.19;;;1.33;80.94
7168;BME280;3625;51.762;14.320;2023-02-28T17:51:53;102182.53;;;1.35;81.81
7168;BME280;3625;51.762;14.320;2023-02-28T17:54:21;102171.84;;;1.29;82.07
7168;BME280;3625;51.762;14.320;2023-02-28T17:56:50;102179.13;;;1.17;82.50
7168;BME280;3625;51.762;14.320;2023-02-28T17:59:20;102183.53;;;0.99;82.51
7168;BME280;3625;51.762;14.320;2023-02-28T18:01:49;102177.09;;;0.91;83.70
7168;BME280;3625;51.762;14.320;2023-02-28T18:04:17;102176.69;;;0.82;84.49
7168;BME280;3625;51.762;14.320;2023-02-28T18:06:46;102172.22;;;0.79;85.69
7168;BME280;3625;51.762;14.320;2023-02-28T18:09:20;102166.00;;;0.75;86.07
7168;BME280;3625;51.762;14.320;2023-02-28T18:11:50;102181.34;;;0.69;86.03
7168;BME280;3625;51.762;14.320;2023-02-28T18:14:23;102180.78;;;0.57;86.97
7168;BME280;3625;51.762;14.320;2023-02-28T18:16:54;102176.06;;;0.49;88.09
7168;BME280;3625;51.762;14.320;2023-02-28T18:19:25;102169.25;;;0.52;88.77
7168;BME280;3625;51.762;14.320;2023-02-28T18:21:57;102170.16;;;0.53;87.60